Flight Track Log - Related Links

Times and Time Zones

All times are in EDT time to prevent confusion due to time zone crossing. See the N589H flight status page for this flight to view local times or setup timezone preferences in your user account.

Time Position Orientation Groundspeed Altitude Reporting Facility
EDT Latitude Longitude Course Direction KTS MPH feet Rate Location/Type
Fri 04:19:53 PM 40.8167 -74.1333 223° Southwest 174 200 1,900  Level New York TRACON
Fri 04:20:53 PM 40.8000 -74.2000 252° West 185 213 3,800 1,857 Climbing New York TRACON
Fri 04:21:59 PM 40.7833 -74.2667 252° West 206 237 5,800 1,476 Climbing New York TRACON
Fri 04:22:59 PM 40.7500 -74.3333 237° Southwest 236 272 6,900 550 Climbing New York TRACON
Fri 04:23:59 PM 40.7167 -74.4167 242° Southwest 265 305 6,900  Level New York TRACON
Fri 04:24:59 PM 40.6833 -74.5000 242° Southwest 251 289 6,900 200 Level New York TRACON
Fri 04:25:00 PM 40.5392 -74.4413 223° Southwest  Level Estimated
Fri 04:25:59 PM 40.6500 -74.5833 242° Southwest 257 296 7,300  Level New York TRACON
Fri 04:26:59 PM 40.6167 -74.6667 242° Southwest 257 296 7,900 264 Climbing New York TRACON
Fri 04:28:38 PM 40.5500 -74.8167 255° West 259 298 8,000 33 Climbing Philadelphia TRACON
Fri 04:30:02 PM 40.5333 -74.9333 259° West 253 291 8,000  Level Philadelphia TRACON
Fri 04:31:08 PM 40.5333 -75.0333 270° West 249 287 8,000  Level Philadelphia TRACON
Fri 04:32:02 PM 40.5333 -75.1167 270° West 252 290 8,000 -500 Level Philadelphia TRACON
Fri 04:33:08 PM 40.5167 -75.2167 258° West 255 293 7,000 -524 Descending Philadelphia TRACON
Fri 04:34:08 PM 40.4667 -75.2500 207° Southwest 291 335 6,900 -762 Descending Philadelphia TRACON
Fri 04:35:14 PM 40.3833 -75.2500 180° South 256 295 5,400 -898 Descending Philadelphia TRACON
Fri 04:36:15 PM 40.3000 -75.2000 155° Southeast 264 304 5,000 -200 Descending Philadelphia TRACON
Fri 04:37:14 PM 40.2333 -75.1667 159° South 273 314 5,000 -265 Level Philadelphia TRACON
Fri 04:38:08 PM 40.1833 -75.1333 153° Southeast 276 318 4,500 -526 Descending Philadelphia TRACON
Fri 04:39:08 PM 40.1167 -75.1000 159° South 241 277 4,000 -261 Descending Philadelphia TRACON
Fri 04:40:03 PM 40.0500 -75.0667 159° South 216 249 4,000  Level Philadelphia TRACON
Fri 04:41:03 PM 40.0000 -75.0333 153° Southeast 199 229 4,000  Level Philadelphia TRACON
Fri 04:42:03 PM 39.9500 -75.0167 166° South 188 216 4,000 -200 Level Philadelphia TRACON
Fri 04:43:03 PM 39.9167 -75.0500 217° Southwest 156 180 3,600 -810 Descending Philadelphia TRACON
Fri 04:44:09 PM 39.9000 -75.1000 247° West 154 177 2,300 -1,099 Descending Philadelphia TRACON
Fri 04:45:14 PM 39.9000 -75.1500 270° West 118 136 1,200 -1,000 Descending Philadelphia TRACON
Fri 04:46:03 PM 39.8833 -75.2000 247° West 121 139 400 -980 Descending Philadelphia TRACON
Fri 04:48:00 PM 39.8667 -75.2333 249° West  Level FlightAware Approximate

Login

Don't have an account? Register now (free) for customized features, flight alerts, and more!